Time;durP1;ratioP1;P1;durP2;ratioP2;P2;SDS_P1;SDS_P2;PMS_P1;PMS_P2;Temp;Humidity;BMP_temperature;BMP_pressure;BME280_temperature;BME280_humidity;BME280_pressure;Samples;Min_cycle;Max_cycle;Signal;HPM_P1;HPM_P2
2022/12/27 00:01:18;;;;;;;7.87;3.33;;;5.30;99.90;;;;;;5092486;28;20628;-70
2022/12/27 00:03:44;;;;;;;10.17;3.20;;;5.20;99.90;;;;;;5093940;28;20710;-70
2022/12/27 00:06:18;;;;;;;8.00;3.17;;;5.20;99.90;;;;;;5092348;28;20175;-70
2022/12/27 00:08:54;;;;;;;7.77;3.57;;;5.30;99.90;;;;;;5093968;28;20171;-70
2022/12/27 00:11:22;;;;;;;6.23;3.33;;;5.30;99.90;;;;;;5093787;28;20250;-70
2022/12/27 00:13:47;;;;;;;9.30;3.47;;;5.30;99.90;;;;;;5093730;28;20175;-70
2022/12/27 00:16:16;;;;;;;8.93;3.40;;;5.10;99.90;;;;;;5093789;28;20175;-70
2022/12/27 00:18:42;;;;;;;5.20;2.97;;;5.20;99.90;;;;;;5093839;28;20172;-69
2022/12/27 00:21:11;;;;;;;3.43;2.80;;;5.20;99.90;;;;;;5093645;28;20211;-70
2022/12/27 00:23:42;;;;;;;7.10;2.77;;;5.20;99.90;;;;;;5093508;28;20271;-70
2022/12/27 00:26:16;;;;;;;7.40;3.13;;;5.20;99.90;;;;;;5093635;28;20183;-70
2022/12/27 00:28:42;;;;;;;5.40;3.00;;;5.20;99.90;;;;;;5092339;28;20183;-69
2022/12/27 00:31:07;;;;;;;9.97;3.13;;;5.20;99.90;;;;;;5093570;28;20174;-69
2022/12/27 00:33:35;;;;;;;8.20;3.10;;;5.20;99.90;;;;;;5093213;28;20172;-70
2022/12/27 00:36:03;;;;;;;6.23;2.93;;;5.10;99.90;;;;;;5093561;28;20183;-70
2022/12/27 00:38:29;;;;;;;6.97;2.97;;;5.10;99.90;;;;;;5093311;28;20615;-70
2022/12/27 00:40:55;;;;;;;10.13;2.90;;;5.10;99.90;;;;;;5093132;28;20587;-69
2022/12/27 00:43:20;;;;;;;6.10;2.70;;;5.20;99.90;;;;;;5093386;28;20194;-70
2022/12/27 00:45:46;;;;;;;5.90;2.57;;;5.20;99.90;;;;;;5092128;28;20179;-71
2022/12/27 00:48:12;;;;;;;7.40;3.13;;;5.30;99.90;;;;;;5093243;28;20595;-70
2022/12/27 00:50:42;;;;;;;5.13;2.67;;;5.20;99.90;;;;;;5091791;28;20188;-70
2022/12/27 00:53:09;;;;;;;6.90;2.93;;;5.20;99.90;;;;;;5091643;28;20171;-70
2022/12/27 00:55:35;;;;;;;7.83;3.03;;;5.10;99.90;;;;;;5093353;28;20233;-70
2022/12/27 00:58:04;;;;;;;8.90;2.97;;;5.10;99.90;;;;;;5092106;28;20182;-69
2022/12/27 01:00:29;;;;;;;9.17;2.93;;;5.10;99.90;;;;;;5093173;28;20207;-69
2022/12/27 01:02:56;;;;;;;4.07;2.43;;;5.10;99.90;;;;;;5092973;28;20164;-70
2022/12/27 01:05:21;;;;;;;6.20;2.90;;;5.10;99.90;;;;;;5093098;28;20222;-69
2022/12/27 01:07:47;;;;;;;5.87;2.90;;;5.10;99.90;;;;;;5093068;28;20207;-70
2022/12/27 01:10:13;;;;;;;6.20;2.73;;;5.10;99.90;;;;;;5093288;28;20172;-69
2022/12/27 01:12:44;;;;;;;6.03;2.57;;;5.00;99.90;;;;;;5093165;28;20160;-70
2022/12/27 01:15:10;;;;;;;7.87;3.20;;;5.00;99.90;;;;;;5093126;28;20175;-70
2022/12/27 01:17:36;;;;;;;7.67;3.10;;;5.10;99.90;;;;;;5091533;28;20651;-70
2022/12/27 01:20:02;;;;;;;8.70;2.90;;;5.10;99.90;;;;;;5091656;28;20291;-70
2022/12/27 01:22:28;;;;;;;6.83;3.10;;;5.00;99.90;;;;;;5092910;28;20569;-70
2022/12/27 01:24:59;;;;;;;5.90;2.60;;;5.10;99.90;;;;;;5093088;28;20179;-70
2022/12/27 01:27:25;;;;;;;6.97;2.70;;;5.00;99.90;;;;;;5093030;28;20168;-70
2022/12/27 01:29:50;;;;;;;7.97;3.00;;;5.00;99.90;;;;;;5093108;28;20172;-70
2022/12/27 01:32:16;;;;;;;10.13;3.10;;;5.00;99.90;;;;;;5092556;28;20511;-70
2022/12/27 01:34:41;;;;;;;6.37;2.80;;;5.00;99.90;;;;;;5092870;28;20256;-70
2022/12/27 01:37:07;;;;;;;9.33;3.30;;;5.00;99.90;;;;;;5092932;28;20195;-70
2022/12/27 01:39:32;;;;;;;6.33;3.33;;;5.00;99.90;;;;;;5092561;28;20295;-69
2022/12/27 01:45:16;;;;;;;9.73;3.47;;;5.00;99.90;;;;;;5092836;28;20704;-71
2022/12/27 01:48:00;;;;;;;6.83;2.93;;;5.00;99.90;;;;;;5091208;28;20187;-70
2022/12/27 01:50:35;;;;;;;5.03;2.83;;;5.00;99.90;;;;;;5092923;28;20199;-70
2022/12/27 01:53:11;;;;;;;7.83;3.17;;;5.00;99.90;;;;;;5092811;28;20172;-70
2022/12/27 01:55:51;;;;;;;3.90;3.07;;;5.10;99.90;;;;;;5092719;28;20262;-69
2022/12/27 01:58:56;;;;;;;7.47;3.40;;;5.00;99.90;;;;;;5092766;28;20179;-69
2022/12/27 02:01:26;;;;;;;7.57;2.93;;;5.00;99.90;;;;;;5092319;28;20227;-70
2022/12/27 02:03:57;;;;;;;5.97;3.33;;;5.10;99.90;;;;;;5093684;28;20164;-70
2022/12/27 02:06:25;;;;;;;7.23;3.20;;;5.00;99.90;;;;;;5096415;28;20164;-69
2022/12/27 02:09:15;;;;;;;5.77;3.17;;;5.10;99.90;;;;;;5096166;28;20627;-70
2022/12/27 02:11:52;;;;;;;6.70;2.90;;;5.10;99.90;;;;;;5096064;28;20673;-70
2022/12/27 02:14:22;;;;;;;7.53;3.10;;;5.10;99.90;;;;;;5095988;28;20213;-70
2022/12/27 02:16:47;;;;;;;9.33;3.00;;;5.10;99.90;;;;;;5095691;28;20172;-70
2022/12/27 02:19:20;;;;;;;7.90;3.20;;;5.10;99.90;;;;;;5096063;28;20710;-70
2022/12/27 02:22:06;;;;;;;8.93;3.43;;;5.10;99.90;;;;;;5096047;28;20256;-70
2022/12/27 02:24:59;;;;;;;9.10;3.20;;;5.00;99.90;;;;;;5094434;28;20720;-70
2022/12/27 02:27:40;;;;;;;6.73;2.73;;;5.20;99.90;;;;;;5094561;28;20647;-70
2022/12/27 02:30:11;;;;;;;11.73;3.10;;;5.10;99.90;;;;;;5095504;28;20172;-69
2022/12/27 02:33:05;;;;;;;5.87;3.10;;;5.20;99.90;;;;;;5095660;28;20581;-70
2022/12/27 02:35:37;;;;;;;11.30;3.40;;;5.20;99.90;;;;;;5093010;28;20188;-69
2022/12/27 02:38:26;;;;;;;8.43;3.27;;;5.10;99.90;;;;;;5095705;28;20164;-70
2022/12/27 02:53:06;;;;;;;7.10;3.10;;;5.00;99.90;;;;;;5095741;28;20167;-69
2022/12/27 02:55:35;;;;;;;8.80;3.40;;;5.00;99.90;;;;;;5095518;28;20668;-69
2022/12/27 02:58:28;;;;;;;8.37;3.00;;;5.00;99.90;;;;;;5095149;28;20160;-70
2022/12/27 03:04:21;;;;;;;9.83;3.70;;;5.00;99.90;;;;;;5095222;28;20195;-69
2022/12/27 03:06:52;;;;;;;10.40;3.33;;;5.00;99.90;;;;;;5093801;28;20172;-69
2022/12/27 03:15:57;;;;;;;5.43;3.27;;;4.90;99.90;;;;;;5094904;28;20175;-70
2022/12/27 03:18:35;;;;;;;6.40;3.40;;;4.80;99.90;;;;;;5095055;28;20191;-70
2022/12/27 03:26:47;;;;;;;10.23;3.60;;;4.90;99.90;;;;;;5094864;28;20190;-70
2022/12/27 03:35:00;;;;;;;5.27;2.97;;;4.90;99.90;;;;;;5094599;28;20233;-70
2022/12/27 03:43:39;;;;;;;8.73;3.50;;;4.90;99.90;;;;;;5094397;28;20575;-68
2022/12/27 03:46:32;;;;;;;10.80;3.80;;;4.80;99.90;;;;;;5094413;28;20235;-70
2022/12/27 03:49:04;;;;;;;7.37;3.87;;;4.80;99.90;;;;;;5094347;28;20199;-70
2022/12/27 03:51:37;;;;;;;8.10;3.70;;;4.80;99.90;;;;;;5092743;28;20175;-70
2022/12/27 03:54:13;;;;;;;11.13;4.03;;;4.80;99.90;;;;;;5094040;28;20172;-69
2022/12/27 03:56:41;;;;;;;8.67;3.50;;;4.80;99.90;;;;;;5093815;28;20251;-70
2022/12/27 03:59:08;;;;;;;7.67;3.77;;;4.80;99.90;;;;;;5094190;28;20164;-70
2022/12/27 04:01:36;;;;;;;10.60;3.93;;;4.80;99.90;;;;;;5093943;28;20252;-69
2022/12/27 04:04:02;;;;;;;9.23;3.77;;;4.80;99.90;;;;;;5093967;28;20164;-69
2022/12/27 04:06:30;;;;;;;6.90;3.60;;;4.80;99.90;;;;;;5093970;28;20580;-69
2022/12/27 04:36:16;;;;;;;7.30;3.70;;;4.70;99.90;;;;;;5093890;28;20185;-70
2022/12/27 04:38:42;;;;;;;10.70;3.67;;;4.70;99.90;;;;;;5093494;28;20255;-70
2022/12/27 04:55:17;;;;;;;8.50;3.70;;;4.70;99.90;;;;;;5092738;28;20173;-69
2022/12/27 04:57:43;;;;;;;7.87;3.43;;;4.60;99.90;;;;;;5093041;28;20178;-69
2022/12/27 05:02:54;;;;;;;9.17;3.90;;;4.70;99.90;;;;;;5093300;28;20260;-69
2022/12/27 05:05:20;;;;;;;9.13;3.57;;;4.70;99.90;;;;;;5092548;28;20180;-70
2022/12/27 05:16:01;;;;;;;8.07;3.60;;;4.70;99.90;;;;;;5093475;28;20187;-69
2022/12/27 05:18:27;;;;;;;11.03;3.90;;;4.80;99.90;;;;;;5092827;28;20244;-70
2022/12/27 05:20:53;;;;;;;11.10;3.97;;;4.70;99.90;;;;;;5092540;28;20235;-69
2022/12/27 05:26:03;;;;;;;10.67;3.73;;;4.80;99.90;;;;;;5093032;28;20591;-69
2022/12/27 05:28:29;;;;;;;8.13;3.60;;;4.80;99.90;;;;;;5092843;28;20259;-69
2022/12/27 05:31:01;;;;;;;9.83;3.83;;;4.80;99.90;;;;;;5092672;28;20183;-69
2022/12/27 05:33:30;;;;;;;9.27;3.90;;;4.80;99.90;;;;;;5092599;28;20167;-69
2022/12/27 05:35:58;;;;;;;6.80;3.40;;;4.90;99.90;;;;;;5092426;28;20206;-69
2022/12/27 05:38:26;;;;;;;5.93;3.53;;;4.90;99.90;;;;;;5092685;28;20650;-70
2022/12/27 05:41:03;;;;;;;8.37;3.57;;;4.90;99.90;;;;;;5095608;28;20227;-70
2022/12/27 05:43:29;;;;;;;8.83;4.00;;;4.90;99.90;;;;;;5096528;28;20172;-70
2022/12/27 05:46:01;;;;;;;7.10;3.40;;;4.90;99.90;;;;;;5096136;28;20179;-70
2022/12/27 05:48:27;;;;;;;8.37;3.30;;;4.90;99.90;;;;;;5096230;28;20251;-69
2022/12/27 05:50:52;;;;;;;5.93;3.57;;;4.90;99.90;;;;;;5095858;28;20200;-70
2022/12/27 05:53:18;;;;;;;5.13;3.33;;;4.90;99.90;;;;;;5095884;28;20554;-70
2022/12/27 05:55:44;;;;;;;8.03;3.43;;;4.90;99.90;;;;;;5096069;28;20175;-70
2022/12/27 05:58:09;;;;;;;9.77;3.70;;;4.90;99.90;;;;;;5095535;28;20168;-70
2022/12/27 06:00:35;;;;;;;13.50;3.73;;;5.00;99.90;;;;;;5095588;28;20659;-70
2022/12/27 06:03:02;;;;;;;8.40;3.60;;;4.90;99.90;;;;;;5095791;28;20252;-69
2022/12/27 06:05:27;;;;;;;10.70;3.83;;;5.00;99.90;;;;;;5095948;28;20266;-69
2022/12/27 06:07:53;;;;;;;15.07;4.50;;;5.00;99.90;;;;;;5095493;28;20663;-70
2022/12/27 06:10:18;;;;;;;12.40;3.93;;;5.00;99.90;;;;;;5095193;28;20183;-69
2022/12/27 06:12:44;;;;;;;9.07;4.33;;;5.00;99.90;;;;;;5095352;28;20172;-70
2022/12/27 06:15:12;;;;;;;10.00;3.93;;;4.90;99.90;;;;;;5095952;28;20431;-70
2022/12/27 06:17:38;;;;;;;12.20;4.37;;;4.90;99.90;;;;;;5095067;28;20183;-70
2022/12/27 06:20:10;;;;;;;9.83;3.90;;;5.00;99.90;;;;;;5095009;28;20561;-70
2022/12/27 06:22:35;;;;;;;5.33;3.63;;;5.00;99.90;;;;;;5094646;28;20172;-69
2022/12/27 06:25:01;;;;;;;5.23;3.50;;;5.00;99.90;;;;;;5095439;28;20172;-69
2022/12/27 06:27:27;;;;;;;11.20;4.20;;;4.90;99.90;;;;;;5095251;28;20526;-70
2022/12/27 06:29:52;;;;;;;11.60;4.07;;;4.90;99.90;;;;;;5093641;28;20176;-69
2022/12/27 06:32:18;;;;;;;8.37;3.83;;;4.90;99.90;;;;;;5095024;28;20176;-70
2022/12/27 06:34:52;;;;;;;8.93;3.83;;;4.90;99.90;;;;;;5095009;28;20585;-70
2022/12/27 06:37:18;;;;;;;6.70;3.30;;;4.90;99.90;;;;;;5093496;28;20224;-70
2022/12/27 06:39:44;;;;;;;8.67;4.10;;;5.00;99.90;;;;;;5094933;28;20215;-69
2022/12/27 06:42:09;;;;;;;8.23;3.80;;;4.90;99.90;;;;;;5094351;28;20200;-70
2022/12/27 06:44:35;;;;;;;7.63;3.70;;;5.00;99.90;;;;;;5093930;28;20172;-69
2022/12/27 06:47:01;;;;;;;8.63;3.93;;;5.00;99.90;;;;;;5094942;28;20565;-69
2022/12/27 06:49:30;;;;;;;6.37;3.83;;;5.00;99.90;;;;;;5094391;28;20176;-70
2022/12/27 06:51:55;;;;;;;10.50;4.10;;;5.10;99.90;;;;;;5094174;28;20168;-70
2022/12/27 06:54:21;;;;;;;6.67;4.00;;;5.10;99.90;;;;;;5094545;28;20642;-69
2022/12/27 06:56:47;;;;;;;11.23;4.17;;;5.20;99.90;;;;;;5094167;28;20187;-70
2022/12/27 06:59:12;;;;;;;10.17;3.97;;;5.20;99.90;;;;;;5094642;28;20171;-70
2022/12/27 07:01:38;;;;;;;11.97;3.83;;;5.30;99.90;;;;;;5093197;28;20219;-69
2022/12/27 07:04:08;;;;;;;8.77;3.57;;;5.40;99.90;;;;;;5094310;28;20213;-70
2022/12/27 07:06:35;;;;;;;6.27;3.90;;;5.40;99.90;;;;;;5094025;28;20277;-70
2022/12/27 07:09:01;;;;;;;9.27;3.63;;;5.40;99.90;;;;;;5094247;28;20212;-69
2022/12/27 07:11:27;;;;;;;8.20;3.10;;;5.50;99.90;;;;;;5094235;28;20164;-70
2022/12/27 07:13:57;;;;;;;6.57;3.30;;;5.50;99.90;;;;;;5093750;28;20173;-70
2022/12/27 07:16:25;;;;;;;11.17;3.80;;;5.50;99.90;;;;;;5094446;28;20653;-69
2022/12/27 07:18:52;;;;;;;8.83;3.17;;;5.50;99.90;;;;;;5094237;28;20247;-70
2022/12/27 07:21:20;;;;;;;7.13;3.80;;;5.50;99.90;;;;;;5093431;28;20207;-70
2022/12/27 07:23:46;;;;;;;7.23;3.10;;;5.70;99.90;;;;;;5094198;28;20245;-69
2022/12/27 07:26:18;;;;;;;7.87;3.60;;;5.70;99.90;;;;;;5093996;28;20175;-69
2022/12/27 07:28:43;;;;;;;7.73;3.20;;;5.70;99.90;;;;;;5094087;28;20278;-69
2022/12/27 07:31:15;;;;;;;11.10;3.40;;;5.70;99.90;;;;;;5094194;28;20591;-71
2022/12/27 07:33:42;;;;;;;12.37;3.87;;;5.70;99.90;;;;;;5093976;28;20178;-70
2022/12/27 07:36:12;;;;;;;7.90;3.60;;;5.70;99.90;;;;;;5094091;28;20168;-70
2022/12/27 07:38:38;;;;;;;9.57;3.40;;;5.60;99.90;;;;;;5094052;28;20213;-70
2022/12/27 07:41:06;;;;;;;5.33;3.60;;;5.50;99.90;;;;;;5093400;28;20621;-71
2022/12/27 07:43:34;;;;;;;6.43;3.20;;;5.50;99.90;;;;;;5093815;28;20168;-70
2022/12/27 07:46:14;;;;;;;9.73;3.57;;;5.50;99.90;;;;;;5093113;28;20192;-70
2022/12/27 07:48:43;;;;;;;6.87;3.10;;;5.50;99.90;;;;;;5093718;28;20176;-70
2022/12/27 07:51:09;;;;;;;8.17;3.43;;;5.40;99.90;;;;;;5093808;28;20172;-70
2022/12/27 07:53:35;;;;;;;8.07;2.80;;;5.40;99.90;;;;;;5093078;28;20180;-70
2022/12/27 07:56:09;;;;;;;7.53;3.77;;;5.50;99.90;;;;;;5093285;28;20595;-70
2022/12/27 07:58:36;;;;;;;8.17;3.83;;;5.50;99.90;;;;;;5093086;28;20639;-70
2022/12/27 08:01:02;;;;;;;6.23;2.87;;;5.60;99.90;;;;;;5093041;28;20207;-70
2022/12/27 08:03:28;;;;;;;6.50;3.47;;;5.60;99.90;;;;;;5092861;28;20232;-70
2022/12/27 08:05:54;;;;;;;7.13;2.90;;;5.70;99.90;;;;;;5092896;28;20180;-71
2022/12/27 08:08:22;;;;;;;6.67;3.13;;;5.80;99.90;;;;;;5093529;28;20616;-70
2022/12/27 08:10:48;;;;;;;6.73;3.03;;;5.90;99.90;;;;;;5092760;28;20180;-70
2022/12/27 08:13:13;;;;;;;11.83;3.80;;;5.90;99.90;;;;;;5092387;28;20277;-70
2022/12/27 08:15:41;;;;;;;5.77;3.20;;;6.00;99.90;;;;;;5093551;28;20199;-69
2022/12/27 08:18:09;;;;;;;10.40;3.50;;;6.00;99.90;;;;;;5092409;28;20171;-70
2022/12/27 08:20:35;;;;;;;7.63;3.17;;;6.00;99.90;;;;;;5092797;28;20217;-70
2022/12/27 08:23:01;;;;;;;10.20;3.43;;;6.00;99.90;;;;;;5092801;28;20188;-71
2022/12/27 08:25:30;;;;;;;8.43;3.10;;;6.00;99.90;;;;;;5093375;28;20202;-70
2022/12/27 08:28:03;;;;;;;6.13;3.27;;;6.00;99.90;;;;;;5093264;28;20175;-70
2022/12/27 08:30:29;;;;;;;6.97;2.93;;;6.10;99.90;;;;;;5092831;28;20164;-70
2022/12/27 08:32:55;;;;;;;7.47;3.30;;;6.10;99.90;;;;;;5092264;28;20176;-69
2022/12/27 08:35:20;;;;;;;9.47;3.40;;;6.20;99.90;;;;;;5092760;28;20172;-70
2022/12/27 08:37:46;;;;;;;10.83;3.13;;;6.30;99.90;;;;;;5092762;28;20506;-71
2022/12/27 08:40:11;;;;;;;7.80;3.00;;;6.40;99.90;;;;;;5092269;28;20251;-69
2022/12/27 08:42:37;;;;;;;7.30;3.00;;;6.40;99.90;;;;;;5092563;28;20875;-69
2022/12/27 08:45:03;;;;;;;7.10;3.23;;;6.30;99.90;;;;;;5091653;28;20691;-70
2022/12/27 08:47:32;;;;;;;9.60;3.20;;;6.50;99.90;;;;;;5092533;28;20172;-70
2022/12/27 08:49:57;;;;;;;8.70;3.27;;;6.50;99.90;;;;;;5092438;28;20710;-70
2022/12/27 08:52:23;;;;;;;7.73;3.30;;;6.50;99.90;;;;;;5092332;28;20271;-70
2022/12/27 08:54:48;;;;;;;7.57;3.30;;;6.60;99.90;;;;;;5092240;28;20501;-70
2022/12/27 08:57:14;;;;;;;5.73;3.27;;;6.50;99.90;;;;;;5092424;28;20534;-71
2022/12/27 08:59:40;;;;;;;5.90;3.13;;;6.70;99.90;;;;;;5092122;28;20168;-69
2022/12/27 09:02:05;;;;;;;9.03;3.27;;;6.80;99.90;;;;;;5091769;28;20748;-70
2022/12/27 09:04:31;;;;;;;6.93;3.23;;;6.80;99.90;;;;;;5092451;28;20168;-70
2022/12/27 09:06:57;;;;;;;9.40;3.77;;;6.80;99.90;;;;;;5091773;28;20180;-70
2022/12/27 09:09:22;;;;;;;7.87;3.23;;;6.90;99.90;;;;;;5092786;28;20676;-70
2022/12/27 09:11:48;;;;;;;8.57;3.03;;;6.80;99.90;;;;;;5092057;28;20555;-70
2022/12/27 09:14:13;;;;;;;7.63;3.33;;;6.90;99.90;;;;;;5096151;28;20695;-70
2022/12/27 09:16:42;;;;;;;8.00;3.00;;;7.10;99.90;;;;;;5096364;28;20164;-70
2022/12/27 09:19:09;;;;;;;10.47;3.43;;;7.30;99.90;;;;;;5095124;28;20642;-69
2022/12/27 09:21:39;;;;;;;8.97;3.10;;;7.40;99.90;;;;;;5096806;28;20231;-69
2022/12/27 09:24:07;;;;;;;6.20;3.23;;;7.40;99.90;;;;;;5096565;28;20184;-69
2022/12/27 09:26:36;;;;;;;5.63;3.00;;;7.30;99.90;;;;;;5096234;28;20192;-70
2022/12/27 09:29:02;;;;;;;6.03;3.10;;;7.40;99.90;;;;;;5096522;28;20156;-69
2022/12/27 09:31:28;;;;;;;7.13;2.77;;;7.80;99.90;;;;;;5094276;28;20238;-70
2022/12/27 09:33:54;;;;;;;7.60;3.00;;;8.50;99.90;;;;;;5095852;28;20250;-68
2022/12/27 09:36:22;;;;;;;9.43;2.73;;;9.40;99.90;;;;;;5096823;28;20171;-70
2022/12/27 09:38:50;;;;;;;7.87;2.77;;;10.20;99.90;;;;;;5096038;28;20233;-70
2022/12/27 09:41:37;;;;;;;5.73;2.43;;;10.90;99.90;;;;;;5096188;28;20295;-71
2022/12/27 09:44:16;;;;;;;4.03;2.80;;;11.20;99.90;;;;;;5095762;28;20175;-69
2022/12/27 09:47:04;;;;;;;5.70;2.60;;;11.40;99.90;;;;;;5095025;28;20174;-71
2022/12/27 09:49:35;;;;;;;7.83;3.20;;;11.90;99.90;;;;;;5095862;28;20175;-72
2022/12/27 09:52:13;;;;;;;6.63;2.90;;;12.40;99.90;;;;;;5096264;28;20176;-71
2022/12/27 09:54:59;;;;;;;5.03;2.67;;;12.50;99.90;;;;;;5095931;28;20257;-72
2022/12/27 09:57:40;;;;;;;3.60;2.90;;;12.50;99.90;;;;;;5095788;28;20167;-72
2022/12/27 10:00:26;;;;;;;3.23;2.60;;;12.30;99.90;;;;;;5095126;28;20164;-73
2022/12/27 10:02:54;;;;;;;3.97;3.03;;;12.50;99.90;;;;;;5094401;28;20247;-72
2022/12/27 10:05:29;;;;;;;7.37;3.03;;;12.70;99.90;;;;;;5095789;28;20175;-71
2022/12/27 10:08:04;;;;;;;7.17;3.13;;;12.70;99.90;;;;;;5095748;28;20175;-70
2022/12/27 10:11:02;;;;;;;4.63;3.03;;;12.80;99.90;;;;;;5094927;28;20242;-70
2022/12/27 10:13:55;;;;;;;11.43;9.03;;;12.30;99.90;;;;;;5095034;28;20234;-71
2022/12/27 10:16:36;;;;;;;13.13;10.30;;;12.20;99.90;;;;;;5094139;28;20184;-70
2022/12/27 10:19:48;;;;;;;30.80;27.67;;;12.20;99.90;;;;;;5095610;28;20168;-70
2022/12/27 10:22:35;;;;;;;12.93;10.83;;;11.50;99.90;;;;;;5013345;28;20214;-69
2022/12/27 10:25:14;;;;;;;101.90;92.40;;;11.00;99.90;;;;;;5088820;28;20176;-70
2022/12/27 10:27:40;;;;;;;13.13;10.43;;;10.80;99.90;;;;;;5095205;28;20168;-71
2022/12/27 10:30:18;;;;;;;41.53;37.23;;;10.50;99.90;;;;;;5094863;28;20253;-70
2022/12/27 10:32:45;;;;;;;8.73;6.10;;;10.10;99.90;;;;;;5095019;28;20175;-70
2022/12/27 10:35:17;;;;;;;9.33;4.40;;;10.00;99.90;;;;;;5095423;28;20175;-69
2022/12/27 10:37:44;;;;;;;11.20;3.60;;;10.10;99.90;;;;;;5095330;28;20171;-69
2022/12/27 10:40:24;;;;;;;5.53;3.47;;;10.30;99.90;;;;;;5094076;28;20220;-70
2022/12/27 10:43:01;;;;;;;8.97;3.33;;;10.40;99.90;;;;;;5095008;28;20254;-71
2022/12/27 10:45:41;;;;;;;6.50;3.37;;;10.20;99.90;;;;;;5095326;28;20183;-70
2022/12/27 10:48:20;;;;;;;8.40;3.90;;;10.00;99.90;;;;;;5093688;28;20202;-70
2022/12/27 10:50:54;;;;;;;7.97;3.40;;;9.90;99.90;;;;;;5093533;28;20180;-71
2022/12/27 10:53:31;;;;;;;7.47;3.33;;;9.80;99.90;;;;;;5095179;28;20243;-69
2022/12/27 10:56:16;;;;;;;8.03;3.13;;;9.70;99.90;;;;;;5094751;28;20619;-71
2022/12/27 10:58:51;;;;;;;6.53;3.10;;;9.40;99.90;;;;;;5094348;28;20164;-69
2022/12/27 11:01:17;;;;;;;7.00;3.33;;;9.50;99.90;;;;;;5094790;28;20235;-69
2022/12/27 11:03:42;;;;;;;7.53;3.23;;;9.80;99.90;;;;;;5094188;28;20175;-69
2022/12/27 11:06:28;;;;;;;9.07;3.20;;;9.90;99.90;;;;;;5094976;28;20176;-70
2022/12/27 11:08:54;;;;;;;6.33;3.40;;;10.00;99.90;;;;;;5094022;28;20178;-70
2022/12/27 11:11:22;;;;;;;8.77;3.20;;;9.70;99.90;;;;;;5093985;28;20180;-69
2022/12/27 11:13:48;;;;;;;7.77;3.17;;;9.80;99.90;;;;;;5094093;28;20255;-69
2022/12/27 11:16:30;;;;;;;14.70;10.03;;;10.00;99.90;;;;;;5094645;28;20634;-69
2022/12/27 11:18:57;;;;;;;10.20;5.90;;;10.20;99.90;;;;;;5094324;28;20255;-70
2022/12/27 11:21:24;;;;;;;9.27;4.57;;;10.30;99.90;;;;;;5092452;28;20298;-69
2022/12/27 11:23:54;;;;;;;9.67;3.63;;;10.50;99.90;;;;;;5093755;28;20441;-69
2022/12/27 11:26:23;;;;;;;9.27;4.23;;;10.70;99.90;;;;;;5093797;28;20192;-71
2022/12/27 11:28:58;;;;;;;7.93;3.63;;;10.80;99.90;;;;;;5094317;28;20273;-70
2022/12/27 11:31:31;;;;;;;5.50;3.20;;;10.90;99.90;;;;;;5092872;28;20305;-70
2022/12/27 11:34:20;;;;;;;13.73;6.60;;;11.30;99.90;;;;;;5094456;28;20168;-68
2022/12/27 11:36:49;;;;;;;8.50;3.07;;;11.40;99.90;;;;;;5094226;28;20176;-69
2022/12/27 11:39:38;;;;;;;7.47;3.80;;;11.50;99.90;;;;;;5093555;28;20222;-69
2022/12/27 11:42:11;;;;;;;13.80;7.40;;;11.40;99.90;;;;;;5055214;28;20243;-69
2022/12/27 11:44:42;;;;;;;7.20;3.17;;;11.40;99.90;;;;;;5093907;28;20239;-69
2022/12/27 11:47:26;;;;;;;8.63;5.37;;;11.20;99.90;;;;;;5093551;28;20168;-68
2022/12/27 11:49:56;;;;;;;11.10;5.17;;;11.50;99.90;;;;;;5093735;28;20176;-69
2022/12/27 11:52:37;;;;;;;10.00;3.47;;;11.20;99.90;;;;;;5093260;28;20171;-70
2022/12/27 11:55:20;;;;;;;13.70;6.00;;;11.20;99.90;;;;;;5093333;28;20176;-69
2022/12/27 11:58:29;;;;;;;7.97;3.40;;;11.20;99.90;;;;;;5094079;28;20309;-69
2022/12/27 12:01:06;;;;;;;9.73;3.40;;;11.00;99.90;;;;;;5093068;28;20628;-70
2022/12/27 12:03:43;;;;;;;17.63;11.10;;;10.80;99.90;;;;;;5093029;28;20179;-69
2022/12/27 12:06:21;;;;;;;13.03;8.70;;;10.50;99.90;;;;;;5093755;28;20164;-69
2022/12/27 12:09:08;;;;;;;9.03;3.87;;;10.20;99.90;;;;;;5092879;28;20270;-69
2022/12/27 12:11:43;;;;;;;8.07;4.77;;;10.00;99.90;;;;;;5092645;28;20168;-69
2022/12/27 12:14:26;;;;;;;8.63;4.07;;;10.00;99.90;;;;;;5092597;28;20179;-70
2022/12/27 12:17:31;;;;;;;9.20;3.60;;;9.90;99.90;;;;;;5092824;28;20187;-70
2022/12/27 12:20:03;;;;;;;9.17;3.80;;;9.90;99.90;;;;;;5051588;28;20232;-69
2022/12/27 12:22:31;;;;;;;12.13;5.60;;;9.80;99.90;;;;;;5092797;28;20163;-70
2022/12/27 12:25:21;;;;;;;17.83;11.03;;;10.10;99.90;;;;;;5093151;28;20171;-70
2022/12/27 12:27:49;;;;;;;10.10;6.77;;;9.90;99.90;;;;;;5092751;28;20195;-70
2022/12/27 12:30:37;;;;;;;12.43;4.27;;;10.00;99.90;;;;;;5091473;28;20178;-69
2022/12/27 12:33:09;;;;;;;11.73;5.97;;;9.80;99.90;;;;;;5092586;28;20266;-70
2022/12/27 12:36:23;;;;;;;12.97;7.50;;;9.80;99.90;;;;;;5092629;28;20762;-70
2022/12/27 12:38:54;;;;;;;12.60;5.00;;;9.80;99.90;;;;;;5074639;28;20228;-70
2022/12/27 12:41:31;;;;;;;9.23;4.30;;;9.80;99.90;;;;;;5072416;28;20212;-69
2022/12/27 12:44:29;;;;;;;11.90;5.83;;;9.80;99.90;;;;;;5072608;28;20636;-69
2022/12/27 12:47:10;;;;;;;7.40;3.87;;;9.80;99.90;;;;;;5071172;28;20169;-71
2022/12/27 12:49:59;;;;;;;7.70;4.30;;;9.70;99.90;;;;;;5072093;28;20183;-70
2022/12/27 12:52:39;;;;;;;34.10;24.30;;;9.70;99.90;;;;;;5072039;28;20172;-69
2022/12/27 12:55:28;;;;;;;12.90;7.13;;;9.70;99.90;;;;;;5071563;28;20196;-70
2022/12/27 12:58:08;;;;;;;15.33;9.30;;;9.70;99.90;;;;;;5071425;28;20171;-70
2022/12/27 13:01:01;;;;;;;13.00;6.43;;;9.80;99.90;;;;;;5072512;28;20206;-70
2022/12/27 13:04:11;;;;;;;19.63;14.27;;;9.90;99.90;;;;;;5071649;28;20176;-70
2022/12/27 13:06:56;;;;;;;75.60;59.87;;;9.80;99.90;;;;;;5062033;28;20181;-70
2022/12/27 13:09:30;;;;;;;8.90;4.43;;;9.90;99.90;;;;;;5072228;28;20176;-70
2022/12/27 13:12:24;;;;;;;10.07;4.17;;;9.80;99.90;;;;;;5070492;28;20172;-69
2022/12/27 13:15:01;;;;;;;18.07;16.27;;;9.70;99.90;;;;;;5072684;28;20164;-69
2022/12/27 13:17:41;;;;;;;10.53;4.40;;;9.70;99.90;;;;;;5072122;28;20249;-69
2022/12/27 13:20:45;;;;;;;17.23;8.90;;;9.80;99.90;;;;;;5071992;28;20180;-69
2022/12/27 13:23:47;;;;;;;11.50;6.07;;;9.80;99.90;;;;;;5009550;28;20202;-69
2022/12/27 13:26:36;;;;;;;10.50;5.70;;;9.80;99.90;;;;;;5009581;28;20193;-69
2022/12/27 13:29:32;;;;;;;13.70;3.87;;;9.80;99.90;;;;;;5010072;28;20174;-70
2022/12/27 13:32:08;;;;;;;12.23;4.23;;;9.80;99.90;;;;;;5009727;28;20196;-70
2022/12/27 13:34:43;;;;;;;9.13;4.47;;;9.90;99.90;;;;;;5010893;28;20244;-69
2022/12/27 13:37:38;;;;;;;9.30;4.90;;;9.90;99.90;;;;;;5009688;28;20670;-70
2022/12/27 13:40:22;;;;;;;15.73;5.00;;;10.00;99.90;;;;;;5010152;28;20223;-70
2022/12/27 13:43:35;;;;;;;12.83;4.17;;;10.00;99.90;;;;;;5009468;28;20183;-70
2022/12/27 13:46:25;;;;;;;8.63;4.27;;;9.90;99.90;;;;;;4992101;28;20261;-70
2022/12/27 13:49:21;;;;;;;9.77;4.27;;;9.90;99.90;;;;;;5010368;28;20502;-69
2022/12/27 13:52:01;;;;;;;7.37;3.90;;;10.00;99.90;;;;;;4993095;28;20666;-70
2022/12/27 13:55:00;;;;;;;9.97;4.10;;;10.00;99.90;;;;;;5010159;28;20170;-70
2022/12/27 13:57:57;;;;;;;7.60;4.40;;;10.00;99.90;;;;;;5047802;28;20176;-70
2022/12/27 14:00:27;;;;;;;40.67;27.13;;;10.10;99.90;;;;;;5073091;28;20295;-70
2022/12/27 14:03:08;;;;;;;7.83;3.97;;;10.00;99.90;;;;;;5075241;28;20172;-69
2022/12/27 14:05:33;;;;;;;10.50;3.90;;;10.00;99.90;;;;;;5075488;28;20254;-70
2022/12/27 14:08:21;;;;;;;11.37;3.87;;;10.00;99.90;;;;;;5075200;28;20252;-70
2022/12/27 14:10:51;;;;;;;12.20;3.57;;;9.90;99.90;;;;;;5075528;28;20247;-69
2022/12/27 14:13:33;;;;;;;6.47;3.37;;;10.00;99.90;;;;;;5074181;28;20177;-70
2022/12/27 14:16:25;;;;;;;9.37;4.13;;;10.00;99.90;;;;;;5074838;28;20173;-71
2022/12/27 14:19:17;;;;;;;10.20;3.23;;;9.90;99.90;;;;;;5074871;28;20183;-70
2022/12/27 14:21:59;;;;;;;6.03;3.47;;;9.80;99.90;;;;;;5073553;28;20231;-71
2022/12/27 14:24:49;;;;;;;13.23;3.20;;;9.70;99.90;;;;;;5074714;28;20193;-70
2022/12/27 14:28:02;;;;;;;8.63;3.60;;;9.60;99.90;;;;;;5073374;28;20592;-70
2022/12/27 14:30:45;;;;;;;8.43;3.63;;;9.60;99.90;;;;;;5074687;28;20183;-70
2022/12/27 14:33:36;;;;;;;10.43;3.60;;;9.50;99.90;;;;;;5074487;28;20173;-70
2022/12/27 14:36:20;;;;;;;9.60;3.53;;;9.50;99.90;;;;;;5074575;28;20164;-71
2022/12/27 14:39:05;;;;;;;14.10;6.00;;;9.50;99.90;;;;;;5073307;28;20176;-71
2022/12/27 14:41:49;;;;;;;6.00;3.50;;;9.50;99.90;;;;;;5094535;28;20211;-71
2022/12/27 14:44:26;;;;;;;11.90;4.13;;;9.50;99.90;;;;;;5094583;28;20184;-72
2022/12/27 14:47:30;;;;;;;16.17;13.27;;;9.50;99.90;;;;;;5094841;28;20164;-71
2022/12/27 14:50:06;;;;;;;10.57;7.37;;;9.50;99.90;;;;;;5094488;28;20171;-70
2022/12/27 14:53:08;;;;;;;16.67;10.63;;;9.40;99.90;;;;;;5093364;28;20180;-70
2022/12/27 14:55:39;;;;;;;17.97;13.23;;;9.50;99.90;;;;;;5095108;28;20198;-71
2022/12/27 14:58:30;;;;;;;6.03;3.83;;;9.50;99.90;;;;;;5094185;28;20168;-71
2022/12/27 15:01:08;;;;;;;8.63;3.90;;;9.50;99.90;;;;;;5094007;28;20196;-71
2022/12/27 15:03:53;;;;;;;9.87;4.80;;;9.50;99.90;;;;;;5094463;28;20159;-71